createdAt,value
2018-06-28T00:00:39.638Z,2.90
2018-06-28T00:03:08.156Z,3.23
2018-06-28T00:05:36.678Z,2.80
2018-06-28T00:08:05.382Z,3.00
2018-06-28T00:10:33.894Z,3.17
2018-06-28T00:13:02.582Z,3.20
2018-06-28T00:15:31.144Z,2.60
2018-06-28T00:17:59.692Z,2.67
2018-06-28T00:20:28.257Z,2.80
2018-06-28T00:22:56.704Z,2.97
2018-06-28T00:25:25.290Z,3.10
2018-06-28T00:27:53.748Z,3.50
2018-06-28T00:30:22.290Z,3.17
2018-06-28T00:32:50.709Z,3.97
2018-06-28T00:35:19.209Z,3.90
2018-06-28T00:37:47.681Z,4.10
2018-06-28T00:40:16.190Z,2.97
2018-06-28T00:42:44.620Z,3.57
2018-06-28T00:45:13.154Z,3.77
2018-06-28T00:47:42.148Z,3.97
2018-06-28T00:50:10.629Z,4.13
2018-06-28T00:52:39.201Z,3.40
2018-06-28T00:55:07.704Z,3.70
2018-06-28T00:57:36.174Z,3.90
2018-06-28T01:00:05.090Z,3.30
2018-06-28T01:02:33.538Z,3.50
2018-06-28T01:05:02.088Z,4.27
2018-06-28T01:07:30.599Z,3.70
2018-06-28T01:09:59.211Z,3.33
2018-06-28T01:12:27.717Z,3.50
2018-06-28T01:14:56.297Z,3.63
2018-06-28T01:17:24.836Z,3.43
2018-06-28T01:19:53.329Z,3.90
2018-06-28T01:22:21.810Z,4.20
2018-06-28T01:24:50.335Z,4.00
2018-06-28T01:27:18.880Z,4.40
2018-06-28T01:29:47.330Z,3.93
2018-06-28T01:32:15.729Z,3.90
2018-06-28T01:34:44.173Z,3.90
2018-06-28T01:37:12.685Z,3.60
2018-06-28T01:39:41.184Z,4.43
2018-06-28T01:42:21.776Z,4.33
2018-06-28T01:44:50.262Z,3.90
2018-06-28T01:47:18.817Z,4.47
2018-06-28T01:49:47.287Z,4.43
2018-06-28T01:52:15.777Z,4.10
2018-06-28T01:54:44.249Z,4.63
2018-06-28T01:57:12.736Z,4.23
2018-06-28T01:59:41.260Z,4.67
2018-06-28T02:02:09.805Z,4.23
2018-06-28T02:04:38.265Z,4.30
2018-06-28T02:07:06.773Z,4.50
2018-06-28T02:09:35.225Z,4.57
2018-06-28T02:12:03.757Z,3.90
2018-06-28T02:14:32.195Z,4.70
2018-06-28T02:17:00.688Z,4.67
2018-06-28T02:19:29.145Z,4.83
2018-06-28T02:21:57.689Z,4.30
2018-06-28T02:24:26.125Z,5.03
2018-06-28T02:26:54.613Z,4.13
2018-06-28T02:29:24.031Z,5.13
2018-06-28T02:31:52.500Z,4.83
2018-06-28T02:34:20.986Z,4.43
2018-06-28T02:36:49.408Z,4.70
2018-06-28T02:39:17.960Z,4.87
2018-06-28T02:41:46.409Z,5.10
2018-06-28T02:44:14.905Z,5.17
2018-06-28T02:46:43.440Z,4.70
2018-06-28T02:49:11.840Z,4.90
2018-06-28T02:51:40.557Z,5.30
2018-06-28T02:54:09.453Z,5.00
2018-06-28T02:56:37.928Z,5.53
2018-06-28T02:59:06.400Z,5.33
2018-06-28T03:01:35.239Z,4.83
2018-06-28T03:04:03.792Z,5.43
2018-06-28T03:06:32.275Z,5.83
2018-06-28T03:09:00.789Z,6.40
2018-06-28T03:11:29.225Z,5.07
2018-06-28T03:13:57.815Z,5.83
2018-06-28T03:16:26.223Z,5.50
2018-06-28T03:18:54.718Z,5.50
2018-06-28T03:21:23.161Z,5.80
2018-06-28T03:23:51.844Z,5.60
2018-06-28T03:26:20.339Z,5.63
2018-06-28T03:28:48.818Z,5.93
2018-06-28T03:31:17.309Z,6.07
2018-06-28T03:33:45.719Z,5.40
2018-06-28T03:36:15.163Z,6.50
2018-06-28T03:38:43.692Z,6.10
2018-06-28T03:41:12.172Z,6.17
2018-06-28T03:43:40.585Z,6.00
2018-06-28T03:46:09.134Z,6.43
2018-06-28T03:48:37.573Z,6.70
2018-06-28T03:51:14.392Z,5.70
2018-06-28T03:53:42.852Z,6.20
2018-06-28T03:56:11.238Z,6.57
2018-06-28T03:59:01.409Z,6.23
2018-06-28T04:01:29.919Z,5.97
2018-06-28T04:03:58.884Z,6.20
2018-06-28T04:06:27.614Z,6.23
2018-06-28T04:08:56.410Z,6.80
2018-06-28T04:11:25.092Z,5.97
2018-06-28T04:13:53.631Z,6.60
2018-06-28T04:16:22.107Z,6.73
2018-06-28T04:18:50.537Z,8.43
2018-06-28T04:21:19.113Z,7.00
2018-06-28T04:23:47.681Z,6.60
2018-06-28T04:26:16.100Z,6.97
2018-06-28T04:28:44.607Z,5.80
2018-06-28T04:31:13.106Z,6.67
2018-06-28T04:33:41.587Z,6.50
2018-06-28T04:36:10.171Z,5.70
2018-06-28T04:38:38.809Z,6.17
2018-06-28T04:41:07.438Z,5.60
2018-06-28T04:43:35.919Z,5.47
2018-06-28T04:46:04.412Z,4.57
2018-06-28T04:49:18.118Z,5.77
2018-06-28T04:51:46.628Z,5.17
2018-06-28T04:54:15.122Z,6.23
2018-06-28T04:56:43.604Z,6.10
2018-06-28T04:59:12.188Z,6.50
2018-06-28T05:01:40.719Z,6.37
2018-06-28T05:04:09.292Z,6.27
2018-06-28T05:09:03.602Z,6.43
2018-06-28T05:11:32.126Z,6.70
2018-06-28T05:14:00.606Z,6.73
2018-06-28T05:16:29.067Z,6.80
2018-06-28T05:18:57.525Z,6.97
2018-06-28T05:21:26.037Z,7.33
2018-06-28T05:24:20.750Z,7.13
2018-06-28T05:26:49.230Z,7.10
2018-06-28T05:29:17.811Z,7.20
2018-06-28T05:31:46.283Z,6.30
2018-06-28T05:34:14.793Z,6.97
2018-06-28T05:36:43.229Z,8.13
2018-06-28T05:39:12.261Z,7.63
2018-06-28T05:41:40.716Z,7.40
2018-06-28T05:44:09.230Z,7.63
2018-06-28T05:46:37.752Z,7.20
2018-06-28T05:49:06.304Z,7.40
2018-06-28T05:51:34.778Z,7.97
2018-06-28T05:54:03.284Z,7.30
2018-06-28T05:56:31.844Z,7.83
2018-06-28T05:59:00.325Z,6.77
2018-06-28T06:01:28.962Z,7.17
2018-06-28T06:03:57.589Z,6.73
2018-06-28T06:06:26.195Z,7.37
2018-06-28T06:08:54.856Z,7.40
2018-06-28T06:11:23.360Z,7.90
2018-06-28T06:13:51.813Z,8.00
2018-06-28T06:16:20.896Z,6.30
2018-06-28T06:18:49.310Z,7.30
2018-06-28T06:21:17.853Z,6.83
2018-06-28T06:23:46.461Z,6.60
2018-06-28T06:26:14.950Z,7.40
2018-06-28T06:28:43.432Z,7.37
2018-06-28T06:31:11.942Z,5.20
2018-06-28T06:33:40.386Z,6.43
2018-06-28T06:36:08.877Z,5.70
2018-06-28T06:38:37.901Z,7.20
2018-06-28T06:41:06.957Z,6.60
2018-06-28T06:43:35.461Z,7.40
2018-06-28T06:46:03.964Z,6.43
2018-06-28T06:48:32.368Z,6.17
2018-06-28T06:51:00.894Z,6.60
2018-06-28T06:53:29.467Z,9.63
2018-06-28T06:55:57.909Z,5.70
2018-06-28T06:58:26.404Z,5.77
2018-06-28T07:00:54.927Z,6.30
2018-06-28T07:03:23.410Z,7.53
2018-06-28T07:05:51.980Z,5.30
2018-06-28T07:08:20.906Z,6.83
2018-06-28T07:10:49.720Z,4.77
2018-06-28T07:13:18.290Z,4.67
2018-06-28T07:15:46.730Z,5.37
2018-06-28T07:18:15.208Z,4.27
2018-06-28T07:20:43.698Z,6.17
2018-06-28T07:23:12.253Z,5.30
2018-06-28T07:25:40.884Z,5.73
2018-06-28T07:28:09.456Z,4.63
2018-06-28T07:30:37.928Z,4.10
2018-06-28T07:33:06.890Z,4.33
2018-06-28T07:35:35.406Z,6.00
2018-06-28T07:38:03.865Z,3.27
2018-06-28T07:40:32.421Z,3.60
2018-06-28T07:43:00.935Z,4.20
2018-06-28T07:45:29.346Z,3.67
2018-06-28T07:47:57.811Z,4.23
2018-06-28T07:50:26.329Z,5.03
2018-06-28T07:52:54.975Z,4.57
2018-06-28T07:55:23.487Z,3.70
2018-06-28T07:57:51.940Z,4.37
2018-06-28T08:00:20.394Z,3.17
2018-06-28T08:02:48.925Z,3.20
2018-06-28T08:05:17.349Z,2.77
2018-06-28T08:08:16.501Z,3.07
2018-06-28T08:10:45.115Z,3.70
2018-06-28T08:13:17.153Z,3.43
2018-06-28T08:15:45.641Z,2.30
2018-06-28T08:18:14.094Z,3.03
2018-06-28T08:20:42.726Z,3.73
2018-06-28T08:23:11.215Z,2.67
2018-06-28T08:25:39.763Z,2.20
2018-06-28T08:28:08.339Z,2.70
2018-06-28T08:30:36.813Z,3.10
2018-06-28T08:33:05.546Z,3.03
2018-06-28T08:35:33.960Z,2.30
2018-06-28T08:38:02.468Z,2.53
2018-06-28T08:40:30.902Z,2.33
2018-06-28T08:42:59.361Z,2.60
2018-06-28T08:45:27.922Z,2.50
2018-06-28T08:47:56.345Z,2.50
2018-06-28T08:50:24.925Z,2.47
2018-06-28T08:52:53.468Z,2.33
2018-06-28T08:55:22.133Z,2.50
2018-06-28T08:57:50.705Z,2.30
2018-06-28T09:00:19.278Z,2.30
2018-06-28T09:02:47.784Z,1.97
2018-06-28T09:05:16.285Z,2.03
2018-06-28T09:07:44.745Z,2.37
2018-06-28T09:10:13.237Z,2.33
2018-06-28T09:12:41.721Z,2.30
2018-06-28T09:15:10.398Z,2.20
2018-06-28T09:17:38.885Z,2.10
2018-06-28T09:20:07.602Z,2.07
2018-06-28T09:22:36.422Z,2.00
2018-06-28T09:25:05.254Z,1.93
2018-06-28T09:27:33.814Z,2.13
2018-06-28T09:30:02.330Z,2.43
2018-06-28T09:32:30.805Z,1.73
2018-06-28T09:34:59.315Z,2.10
2018-06-28T09:37:28.010Z,2.13
2018-06-28T09:39:56.652Z,2.00
2018-06-28T09:42:25.227Z,2.60
2018-06-28T09:44:53.820Z,2.27
2018-06-28T09:47:22.296Z,2.37
2018-06-28T09:49:50.825Z,2.60
2018-06-28T09:52:19.413Z,2.37
2018-06-28T09:54:48.058Z,2.57
2018-06-28T09:57:16.627Z,2.47
2018-06-28T09:59:45.120Z,2.03
2018-06-28T10:02:13.601Z,2.10
2018-06-28T10:04:42.028Z,2.40
2018-06-28T10:07:10.588Z,3.10
2018-06-28T10:09:39.343Z,3.13
2018-06-28T10:12:07.885Z,2.80
2018-06-28T10:14:36.535Z,2.20
2018-06-28T10:17:05.013Z,2.00
2018-06-28T10:19:33.566Z,3.00
2018-06-28T10:22:02.080Z,3.13
2018-06-28T10:24:30.581Z,3.07
2018-06-28T10:26:59.034Z,2.73
2018-06-28T10:29:27.510Z,1.93
2018-06-28T10:31:56.788Z,2.20
2018-06-28T10:34:25.301Z,2.30
2018-06-28T10:36:53.902Z,2.30
2018-06-28T10:39:22.439Z,2.63
2018-06-28T10:41:50.902Z,2.37
2018-06-28T10:44:19.410Z,2.70
2018-06-28T10:46:47.899Z,2.17
2018-06-28T10:49:16.485Z,2.57
2018-06-28T10:51:44.951Z,2.50
2018-06-28T10:54:13.487Z,2.23
2018-06-28T10:56:42.050Z,2.50
2018-06-28T10:59:10.603Z,2.33
2018-06-28T11:01:39.309Z,2.70
2018-06-28T11:04:07.873Z,2.37
2018-06-28T11:06:36.341Z,2.37
2018-06-28T11:09:08.024Z,2.37
2018-06-28T11:11:36.756Z,1.87
2018-06-28T11:14:05.220Z,2.30
2018-06-28T11:16:33.786Z,2.17
2018-06-28T11:19:02.245Z,2.00
2018-06-28T11:21:31.253Z,1.90
2018-06-28T11:23:59.690Z,2.40
2018-06-28T11:26:28.184Z,1.60
2018-06-28T11:28:56.690Z,2.20
2018-06-28T11:31:25.196Z,2.63
2018-06-28T11:33:54.028Z,2.00
2018-06-28T11:36:22.569Z,1.93
2018-06-28T11:38:51.373Z,2.13
2018-06-28T11:41:19.917Z,2.20
2018-06-28T11:43:48.529Z,2.53
2018-06-28T11:46:17.004Z,2.43
2018-06-28T11:49:00.552Z,2.30
2018-06-28T11:51:28.961Z,2.20
2018-06-28T11:53:57.441Z,2.27
2018-06-28T11:56:25.937Z,2.20
2018-06-28T11:58:54.352Z,2.40
2018-06-28T12:01:22.929Z,2.00
2018-06-28T12:03:51.500Z,2.20
2018-06-28T12:06:20.376Z,2.30
2018-06-28T12:08:49.930Z,2.10
2018-06-28T12:11:18.556Z,2.00
2018-06-28T12:13:47.051Z,2.30
2018-06-28T12:16:15.831Z,2.07
2018-06-28T12:18:44.363Z,1.73
2018-06-28T12:21:12.937Z,2.57
2018-06-28T12:23:41.505Z,2.27
2018-06-28T12:26:10.009Z,2.20
2018-06-28T12:28:38.524Z,2.10
2018-06-28T12:31:07.093Z,2.13
2018-06-28T12:33:35.614Z,2.40
2018-06-28T12:36:04.101Z,2.17
2018-06-28T12:38:33.105Z,2.27
2018-06-28T12:41:01.573Z,2.17
2018-06-28T12:43:30.877Z,2.13
2018-06-28T12:46:00.485Z,2.30
2018-06-28T12:48:29.065Z,2.07
2018-06-28T12:50:57.627Z,1.80
2018-06-28T12:53:26.120Z,2.07
2018-06-28T12:56:29.825Z,2.17
2018-06-28T12:58:59.843Z,2.13
2018-06-28T13:01:28.934Z,2.20
2018-06-28T13:03:57.737Z,2.20
2018-06-28T13:06:26.340Z,2.50
2018-06-28T13:08:55.617Z,2.67
2018-06-28T13:11:24.496Z,2.07
2018-06-28T13:13:53.280Z,2.20
2018-06-28T13:16:22.725Z,1.90
2018-06-28T13:18:51.342Z,2.27
2018-06-28T13:21:19.857Z,2.10
2018-06-28T13:23:48.394Z,2.67
2018-06-28T13:26:17.641Z,2.37
2018-06-28T13:28:46.425Z,2.30
2018-06-28T13:31:14.973Z,2.00
2018-06-28T13:33:43.602Z,1.80
2018-06-28T13:36:12.105Z,4.90
2018-06-28T13:38:40.664Z,5.00
2018-06-28T13:41:09.362Z,2.07
2018-06-28T13:43:37.719Z,3.47
2018-06-28T13:46:06.409Z,1.90
2018-06-28T13:48:34.905Z,2.10
2018-06-28T13:51:03.497Z,2.10
2018-06-28T13:53:32.087Z,2.43
2018-06-28T13:56:00.642Z,2.37
2018-06-28T13:58:29.078Z,2.20
2018-06-28T14:00:57.619Z,2.07
2018-06-28T14:03:26.177Z,1.80
2018-06-28T14:05:54.633Z,1.80
2018-06-28T14:08:23.048Z,2.17
2018-06-28T14:10:51.606Z,1.77
2018-06-28T14:13:20.126Z,1.90
2018-06-28T14:15:48.596Z,1.60
2018-06-28T14:18:17.108Z,1.70
2018-06-28T14:20:45.659Z,1.83
2018-06-28T14:23:14.101Z,1.90
2018-06-28T14:25:42.644Z,1.90
2018-06-28T14:28:11.428Z,1.57
2018-06-28T14:30:40.321Z,1.80
2018-06-28T14:33:08.860Z,1.77
2018-06-28T14:35:37.489Z,1.90
2018-06-28T14:38:06.259Z,1.60
2018-06-28T14:40:34.725Z,1.60
2018-06-28T14:43:03.660Z,1.67
2018-06-28T14:45:32.534Z,1.50
2018-06-28T14:48:01.403Z,1.67
2018-06-28T14:50:29.944Z,1.53
2018-06-28T14:52:58.456Z,1.73
2018-06-28T14:55:26.940Z,1.87
2018-06-28T14:57:55.467Z,1.53
2018-06-28T15:00:24.072Z,1.60
2018-06-28T15:02:52.629Z,1.17
2018-06-28T15:05:21.091Z,1.70
2018-06-28T15:07:49.687Z,1.60
2018-06-28T15:10:18.257Z,1.40
2018-06-28T15:12:46.833Z,1.50
2018-06-28T15:15:15.469Z,1.33
2018-06-28T15:17:43.944Z,1.10
2018-06-28T15:20:12.468Z,2.57
2018-06-28T15:22:41.054Z,1.30
2018-06-28T15:25:28.264Z,1.60
2018-06-28T15:27:56.757Z,1.47
2018-06-28T15:30:25.237Z,1.27
2018-06-28T15:32:53.715Z,1.63
2018-06-28T15:35:22.141Z,1.27
2018-06-28T15:37:50.661Z,1.63
2018-06-28T15:40:19.140Z,1.60
2018-06-28T15:42:47.648Z,1.30
2018-06-28T15:45:16.187Z,2.00
2018-06-28T15:47:44.633Z,1.53
2018-06-28T15:50:13.270Z,1.80
2018-06-28T15:52:41.757Z,1.60
2018-06-28T15:55:10.241Z,1.70
2018-06-28T15:57:38.717Z,1.57
2018-06-28T16:00:07.741Z,1.60
2018-06-28T16:02:36.298Z,1.33
2018-06-28T16:05:05.122Z,1.50
2018-06-28T16:07:33.861Z,1.70
2018-06-28T16:10:02.324Z,1.50
2018-06-28T16:12:30.741Z,1.50
2018-06-28T16:14:59.297Z,1.60
2018-06-28T16:17:31.149Z,1.50
2018-06-28T16:20:02.359Z,1.30
2018-06-28T16:22:31.363Z,1.10
2018-06-28T16:25:00.190Z,1.13
2018-06-28T16:27:28.772Z,1.80
2018-06-28T16:29:57.372Z,1.47
2018-06-28T16:32:25.865Z,1.10
2018-06-28T16:34:54.326Z,1.27
2018-06-28T16:37:22.779Z,1.70
2018-06-28T16:39:51.378Z,1.23
2018-06-28T16:42:19.932Z,1.10
2018-06-28T16:44:48.465Z,1.20
2018-06-28T16:47:16.945Z,1.27
2018-06-28T16:49:48.821Z,1.90
2018-06-28T16:52:17.385Z,1.70
2018-06-28T16:54:45.835Z,1.43
2018-06-28T16:57:14.284Z,1.20
2018-06-28T16:59:42.956Z,1.30
2018-06-28T17:02:11.276Z,1.30
2018-06-28T17:04:40.462Z,1.30
2018-06-28T17:07:09.046Z,1.33
2018-06-28T17:09:37.658Z,1.50
2018-06-28T17:12:06.341Z,1.30
2018-06-28T17:14:35.139Z,1.10
2018-06-28T17:17:03.675Z,1.43
2018-06-28T17:19:32.276Z,1.43
2018-06-28T17:22:01.031Z,1.53
2018-06-28T17:24:30.158Z,1.20
2018-06-28T17:26:59.103Z,1.83
2018-06-28T17:29:27.658Z,1.60
2018-06-28T17:31:56.261Z,1.37
2018-06-28T17:34:24.625Z,1.30
2018-06-28T17:36:53.109Z,1.17
2018-06-28T17:39:21.680Z,1.20
2018-06-28T17:41:50.155Z,1.30
2018-06-28T17:44:18.666Z,1.30
2018-06-28T17:46:47.122Z,1.40
2018-06-28T17:49:15.591Z,1.37
2018-06-28T17:51:44.762Z,1.13
2018-06-28T17:54:13.775Z,1.30
2018-06-28T17:56:42.333Z,1.60
2018-06-28T17:59:10.838Z,1.23
2018-06-28T18:01:39.257Z,2.13
2018-06-28T18:04:07.900Z,1.27
2018-06-28T18:06:36.567Z,1.07
2018-06-28T18:09:08.379Z,1.20
2018-06-28T18:11:37.275Z,1.80
2018-06-28T18:14:06.069Z,1.30
2018-06-28T18:16:47.722Z,1.30
2018-06-28T18:19:16.583Z,1.30
2018-06-28T18:21:45.117Z,1.27
2018-06-28T18:24:13.636Z,1.30
2018-06-28T18:26:42.074Z,1.40
2018-06-28T18:29:10.592Z,1.30
2018-06-28T18:31:39.259Z,1.33
2018-06-28T18:34:07.835Z,1.30
2018-06-28T18:36:36.346Z,1.97
2018-06-28T18:39:08.101Z,1.30
2018-06-28T18:41:37.179Z,1.43
2018-06-28T18:44:05.795Z,1.50
2018-06-28T18:46:34.604Z,1.43
2018-06-28T18:49:03.126Z,1.60
2018-06-28T18:51:31.684Z,1.40
2018-06-28T18:54:00.306Z,1.87
2018-06-28T18:56:28.925Z,1.40
2018-06-28T18:58:57.383Z,1.33
2018-06-28T19:01:26.043Z,1.80
2018-06-28T19:03:54.552Z,1.67
2018-06-28T19:06:23.258Z,1.30
2018-06-28T19:08:51.825Z,0.93
2018-06-28T19:11:20.582Z,1.70
2018-06-28T19:13:54.565Z,1.30
2018-06-28T19:16:29.529Z,1.23
2018-06-28T19:18:58.063Z,1.57
2018-06-28T19:21:32.526Z,1.47
2018-06-28T19:24:01.032Z,1.63
2018-06-28T19:26:29.677Z,1.37
2018-06-28T19:29:02.356Z,1.50
2018-06-28T19:31:36.072Z,2.10
2018-06-28T19:34:04.602Z,1.30
2018-06-28T19:36:33.144Z,1.73
2018-06-28T19:39:06.912Z,1.63
2018-06-28T19:41:40.618Z,1.60
2018-06-28T19:44:09.131Z,1.43
2018-06-28T19:46:37.743Z,1.80
2018-06-28T19:49:10.461Z,1.47
2018-06-28T19:51:44.069Z,1.73
2018-06-28T19:54:14.214Z,1.67
2018-06-28T19:56:43.734Z,1.60
2018-06-28T19:59:12.161Z,1.70
2018-06-28T20:01:46.127Z,1.27
2018-06-28T20:04:14.631Z,1.40
2018-06-28T20:06:44.335Z,1.57
2018-06-28T20:09:13.212Z,1.70
2018-06-28T20:11:41.727Z,1.70
2018-06-28T20:14:15.594Z,1.70
2018-06-28T20:17:48.436Z,1.70
2018-06-28T20:20:19.423Z,1.90
2018-06-28T20:22:48.052Z,1.47
2018-06-28T20:25:16.876Z,1.73
2018-06-28T20:27:50.743Z,1.83
2018-06-28T20:30:25.125Z,2.20
2018-06-28T20:32:58.944Z,1.80
2018-06-28T20:35:27.662Z,1.90
2018-06-28T20:37:56.510Z,1.60
2018-06-28T20:40:25.035Z,2.20
2018-06-28T20:42:53.594Z,1.80
2018-06-28T20:45:22.209Z,1.87
2018-06-28T20:47:50.766Z,2.00
2018-06-28T20:50:19.317Z,1.93
2018-06-28T20:52:47.862Z,2.03
2018-06-28T20:55:16.373Z,1.53
2018-06-28T20:57:44.981Z,2.10
2018-06-28T21:00:13.462Z,1.87
2018-06-28T21:02:42.760Z,1.97
2018-06-28T21:05:11.343Z,2.00
2018-06-28T21:07:39.849Z,2.03
2018-06-28T21:10:08.410Z,1.80
2018-06-28T21:12:36.955Z,1.63
2018-06-28T21:15:05.616Z,1.77
2018-06-28T21:17:34.068Z,1.60
2018-06-28T21:20:03.106Z,1.97
2018-06-28T21:22:31.565Z,1.60
2018-06-28T21:25:00.237Z,2.73
2018-06-28T21:27:28.765Z,1.93
2018-06-28T21:29:57.273Z,1.90
2018-06-28T21:32:25.794Z,2.00
2018-06-28T21:34:54.463Z,1.80
2018-06-28T21:37:23.164Z,1.80
2018-06-28T21:39:51.733Z,1.73
2018-06-28T21:42:20.329Z,2.60
2018-06-28T21:44:48.774Z,1.77
2018-06-28T21:47:17.492Z,2.10
2018-06-28T21:49:46.061Z,2.33
2018-06-28T21:52:14.516Z,1.80
2018-06-28T21:54:43.060Z,2.30
2018-06-28T21:57:12.432Z,1.93
2018-06-28T21:59:41.056Z,1.97
2018-06-28T22:02:09.533Z,2.57
2018-06-28T22:04:38.077Z,2.20
2018-06-28T22:07:06.689Z,2.07
2018-06-28T22:09:35.293Z,2.60
2018-06-28T22:12:03.881Z,1.70
2018-06-28T22:14:32.826Z,2.30
2018-06-28T22:17:02.357Z,2.20
2018-06-28T22:19:31.410Z,2.30
2018-06-28T22:22:00.512Z,1.87
2018-06-28T22:24:29.426Z,2.40
2018-06-28T22:26:58.067Z,2.57
2018-06-28T22:29:37.446Z,1.93
2018-06-28T22:32:06.233Z,1.57
2018-06-28T22:34:34.817Z,2.30
2018-06-28T22:37:03.349Z,1.47
2018-06-28T22:39:31.885Z,2.53
2018-06-28T22:42:26.194Z,1.60
2018-06-28T22:44:55.030Z,2.33
2018-06-28T22:47:23.547Z,1.50
2018-06-28T22:49:52.334Z,2.00
2018-06-28T22:52:20.918Z,1.50
2018-06-28T22:54:49.446Z,1.90
2018-06-28T22:57:18.229Z,1.83
2018-06-28T22:59:47.049Z,2.03
2018-06-28T23:02:16.199Z,1.57
2018-06-28T23:04:45.465Z,2.10
2018-06-28T23:07:17.665Z,1.63
2018-06-28T23:09:46.126Z,2.37
2018-06-28T23:12:14.664Z,1.47
2018-06-28T23:14:43.229Z,1.63
2018-06-28T23:17:11.867Z,1.80
2018-06-28T23:19:40.399Z,2.17
2018-06-28T23:22:12.619Z,1.13
2018-06-28T23:24:41.317Z,1.20
2018-06-28T23:27:09.780Z,1.63
2018-06-28T23:29:39.489Z,1.63
2018-06-28T23:32:08.019Z,1.97
2018-06-28T23:34:36.569Z,1.63
2018-06-28T23:37:05.680Z,1.40
2018-06-28T23:39:34.147Z,2.10
2018-06-28T23:42:02.731Z,1.30
2018-06-28T23:44:31.321Z,1.50
2018-06-28T23:47:01.352Z,2.33
2018-06-28T23:49:30.321Z,1.73
2018-06-28T23:51:58.905Z,1.77
2018-06-28T23:54:27.286Z,2.13
2018-06-28T23:56:55.766Z,2.20
2018-06-28T23:59:24.237Z,2.47
